Time;durP1;ratioP1;P1;durP2;ratioP2;P2;SDS_P1;SDS_P2;PMS_P1;PMS_P2;Temp;Humidity;BMP_temperature;BMP_pressure;BME280_temperature;BME280_humidity;BME280_pressure;Samples;Min_cycle;Max_cycle;Signal;HPM_P1;HPM_P2
2023/08/08 00:00:42;;;;;;;0.10;0.10;;;;;;;19.27;54.14;101035.66;7353905;19;20097;-57
2023/08/08 00:03:08;;;;;;;0.08;0.08;;;;;;;19.25;54.05;101029.56;7354426;19;20684;-57
2023/08/08 00:05:34;;;;;;;0.10;0.10;;;;;;;19.24;54.12;101030.50;7354350;19;20014;-57
2023/08/08 00:07:59;;;;;;;0.00;0.00;;;;;;;19.19;54.36;101027.25;7354912;19;20658;-57
2023/08/08 00:10:24;;;;;;;0.00;0.00;;;;;;;19.20;54.19;101028.97;7352800;19;20015;-56
2023/08/08 00:12:50;;;;;;;0.00;0.00;;;;;;;19.20;54.26;101028.97;7342662;19;20017;-58
2023/08/08 00:15:16;;;;;;;0.10;0.10;;;;;;;19.21;54.53;101030.69;7350337;19;20471;-57
2023/08/08 00:17:41;;;;;;;0.08;0.08;;;;;;;19.20;54.75;101021.03;7323628;19;20326;-58
2023/08/08 00:20:07;;;;;;;0.00;0.00;;;;;;;19.19;54.54;101012.22;7348172;19;20015;-56
2023/08/08 00:22:32;;;;;;;0.10;0.10;;;;;;;19.20;55.20;101015.72;7354796;19;20015;-57
2023/08/08 00:24:58;;;;;;;0.10;0.10;;;;;;;19.09;54.73;100991.63;7345844;19;20585;-57
2023/08/08 00:27:23;;;;;;;0.00;0.00;;;;;;;19.09;54.64;100989.84;7352310;19;20010;-58
2023/08/08 00:29:50;;;;;;;0.10;0.10;;;;;;;19.18;54.59;100999.06;7347801;19;20002;-56
2023/08/08 00:32:16;;;;;;;0.05;0.05;;;;;;;19.15;54.86;101004.53;7353713;19;20014;-53
2023/08/08 00:34:41;;;;;;;0.00;0.00;;;;;;;19.07;54.80;100990.88;7353199;19;20017;-57
2023/08/08 00:37:06;;;;;;;0.00;0.00;;;;;;;19.15;55.16;101000.09;7353636;19;20017;-58
2023/08/08 00:39:32;;;;;;;0.10;0.10;;;;;;;19.14;55.09;100995.72;7352553;19;20681;-57
2023/08/08 00:41:57;;;;;;;0.00;0.00;;;;;;;19.13;54.94;100996.69;7347160;19;20034;-57
2023/08/08 00:44:23;;;;;;;0.10;0.10;;;;;;;19.10;54.75;100990.69;7352866;19;20052;-57
2023/08/08 00:46:48;;;;;;;0.00;0.00;;;;;;;19.10;54.75;100995.97;7354027;19;20040;-57
2023/08/08 00:49:14;;;;;;;0.10;0.10;;;;;;;18.96;55.51;100972.03;7350546;19;20637;-56
2023/08/08 00:51:40;;;;;;;0.00;0.00;;;;;;;19.08;55.17;100987.28;7352175;19;20019;-58
2023/08/08 00:54:06;;;;;;;0.10;0.10;;;;;;;19.03;55.16;100973.44;7351261;19;20046;-58
2023/08/08 00:56:32;;;;;;;0.10;0.10;;;;;;;19.06;55.37;100973.25;7353975;19;20782;-55
2023/08/08 00:58:57;;;;;;;0.10;0.10;;;;;;;19.07;55.54;100980.28;7350248;19;20086;-56
2023/08/08 01:01:23;;;;;;;0.10;0.10;;;;;;;19.07;55.49;100980.28;7351536;19;20022;-58
2023/08/08 01:03:49;;;;;;;0.00;0.00;;;;;;;18.96;55.65;100961.44;7350518;19;20571;-56
2023/08/08 01:06:42;;;;;;;0.10;0.10;;;;;;;19.09;54.36;100978.38;7353462;19;20753;-57
2023/08/08 01:09:23;;;;;;;0.10;0.10;;;;;;;19.06;54.80;100979.44;7248804;19;2004504;-57
2023/08/08 01:11:49;;;;;;;0.00;0.00;;;;;;;18.97;55.54;100971.97;7350895;19;20010;-56
2023/08/08 01:14:18;;;;;;;0.10;0.10;;;;;;;19.02;55.44;100977.03;7349004;19;20209;-57
2023/08/08 01:16:44;;;;;;;0.03;0.03;;;;;;;19.00;55.80;100984.16;7353053;19;20014;-57
2023/08/08 01:19:16;;;;;;;0.00;0.00;;;;;;;19.01;55.92;100981.47;7351457;19;21604;-58
2023/08/08 01:21:45;;;;;;;0.10;0.10;;;;;;;19.01;55.73;100977.94;7350771;19;20093;-56
2023/08/08 01:24:21;;;;;;;0.00;0.00;;;;;;;19.01;54.90;100975.28;7348847;19;20022;-57
2023/08/08 01:26:47;;;;;;;0.10;0.10;;;;;;;18.95;55.91;100973.81;7350477;19;20014;-57
2023/08/08 01:29:13;;;;;;;0.10;0.10;;;;;;;18.97;56.25;100979.91;7350448;19;20046;-57
2023/08/08 01:31:38;;;;;;;0.00;0.00;;;;;;;18.95;56.11;100987.06;7351560;19;20022;-56
2023/08/08 01:34:04;;;;;;;0.05;0.05;;;;;;;18.93;55.65;100983.66;7348179;19;20022;-57
2023/08/08 01:36:35;;;;;;;0.00;0.00;;;;;;;18.97;55.99;100976.41;7347334;19;20011;-57
2023/08/08 01:39:04;;;;;;;0.00;0.00;;;;;;;18.81;56.15;100956.06;7349531;19;20017;-58
2023/08/08 01:41:32;;;;;;;0.10;0.10;;;;;;;18.93;56.03;100976.56;7349550;19;20044;-57
2023/08/08 01:43:58;;;;;;;0.00;0.00;;;;;;;18.92;56.55;100966.91;7349794;19;20027;-55
2023/08/08 01:46:25;;;;;;;0.10;0.10;;;;;;;18.90;56.65;100963.47;7355274;19;20026;-57
2023/08/08 01:48:50;;;;;;;0.03;0.03;;;;;;;18.91;56.34;100973.16;7347797;19;20027;-53
2023/08/08 01:51:15;;;;;;;0.10;0.10;;;;;;;18.88;56.66;100973.31;7349816;19;20018;-56
2023/08/08 01:53:41;;;;;;;0.00;0.00;;;;;;;18.89;56.64;100975.00;7351066;19;20819;-57
2023/08/08 01:56:06;;;;;;;0.10;0.10;;;;;;;18.89;56.63;100972.38;7352252;19;20018;-57
2023/08/08 01:58:32;;;;;;;0.08;0.08;;;;;;;18.84;56.70;100969.09;7324973;19;20006;-58
2023/08/08 02:00:58;;;;;;;0.10;0.10;;;;;;;18.88;56.73;100973.31;7349696;19;20049;-57
2023/08/08 02:03:23;;;;;;;0.00;0.00;;;;;;;18.87;56.40;100968.09;7349867;19;20010;-56
2023/08/08 02:05:48;;;;;;;0.00;0.00;;;;;;;18.87;56.42;100973.41;7330279;19;20928;-57
2023/08/08 02:08:14;;;;;;;0.08;0.08;;;;;;;18.85;56.44;100970.81;7350295;19;20017;-56
2023/08/08 02:10:39;;;;;;;0.10;0.10;;;;;;;18.84;56.46;100963.81;7350918;19;20010;-58
2023/08/08 02:13:05;;;;;;;0.10;0.10;;;;;;;18.83;56.83;100962.09;7353378;19;20654;-57
2023/08/08 02:15:31;;;;;;;0.00;0.00;;;;;;;18.82;56.72;100956.91;7353070;19;20070;-58
2023/08/08 02:17:56;;;;;;;0.10;0.10;;;;;;;18.81;57.14;100958.69;7344541;19;20130;-54
2023/08/08 02:20:21;;;;;;;0.08;0.08;;;;;;;18.77;57.11;100946.56;7349227;19;20014;-58
2023/08/08 02:22:47;;;;;;;0.00;0.00;;;;;;;18.79;57.01;100943.81;7354236;19;20041;-58
2023/08/08 02:25:12;;;;;;;0.10;0.10;;;;;;;18.74;57.14;100944.06;7349809;19;20006;-57
2023/08/08 02:27:38;;;;;;;0.10;0.10;;;;;;;18.76;56.82;100944.88;7342796;19;20014;-56
2023/08/08 02:30:04;;;;;;;0.10;0.10;;;;;;;18.75;57.17;100937.84;7354940;19;20021;-57
2023/08/08 02:32:29;;;;;;;0.10;0.10;;;;;;;18.72;57.50;100938.00;7350376;19;20033;-55
2023/08/08 02:34:55;;;;;;;0.00;0.00;;;;;;;18.74;57.54;100935.28;7351438;19;20015;-56
2023/08/08 02:37:20;;;;;;;0.03;0.03;;;;;;;18.73;57.57;100934.44;7350984;19;20390;-56
2023/08/08 02:39:46;;;;;;;0.00;0.00;;;;;;;18.66;57.63;100927.72;7344578;19;20018;-55
2023/08/08 02:42:11;;;;;;;0.00;0.00;;;;;;;18.69;57.08;100940.81;7351692;19;20018;-58
2023/08/08 02:44:36;;;;;;;0.10;0.10;;;;;;;18.68;57.38;100941.75;7348274;19;20853;-57
2023/08/08 02:47:02;;;;;;;0.10;0.10;;;;;;;18.65;57.15;100934.81;7354251;19;20007;-55
2023/08/08 02:49:28;;;;;;;0.10;0.10;;;;;;;18.65;57.39;100936.56;7356037;19;20018;-57
2023/08/08 02:51:53;;;;;;;0.00;0.00;;;;;;;18.63;57.43;100946.41;7351906;19;20353;-56
2023/08/08 02:54:19;;;;;;;0.00;0.00;;;;;;;18.61;57.76;100940.34;7358354;19;20002;-57
2023/08/08 02:56:44;;;;;;;0.03;0.03;;;;;;;18.59;57.61;100931.63;7359336;19;20014;-56
2023/08/08 02:59:10;;;;;;;0.10;0.10;;;;;;;18.54;57.87;100923.06;7358558;19;20028;-57
2023/08/08 03:01:39;;;;;;;0.10;0.10;;;;;;;18.57;57.91;100930.84;7357401;19;20579;-58
2023/08/08 03:04:05;;;;;;;0.10;0.10;;;;;;;18.55;57.65;100935.34;7357347;19;20066;-57
2023/08/08 03:06:31;;;;;;;0.10;0.10;;;;;;;18.38;57.96;100915.94;7346420;19;20022;-56
2023/08/08 03:08:57;;;;;;;0.00;0.00;;;;;;;18.52;58.23;100930.25;7359821;19;20015;-57
2023/08/08 03:11:22;;;;;;;0.10;0.10;;;;;;;18.50;57.83;100927.69;7354839;19;20636;-57
2023/08/08 03:13:47;;;;;;;0.10;0.10;;;;;;;18.47;58.27;100911.97;7358675;19;20035;-56
2023/08/08 03:16:13;;;;;;;0.10;0.10;;;;;;;18.48;57.97;100918.09;7357734;19;20026;-58
2023/08/08 03:18:38;;;;;;;0.10;0.10;;;;;;;18.47;58.45;100916.41;7340963;19;20010;-56
2023/08/08 03:21:04;;;;;;;0.10;0.10;;;;;;;18.46;58.50;100918.19;7353105;19;20022;-57
2023/08/08 03:23:29;;;;;;;0.10;0.10;;;;;;;18.33;58.17;100902.09;7349723;19;20021;-57
2023/08/08 03:25:55;;;;;;;0.00;0.00;;;;;;;18.44;58.58;100938.56;7354893;19;20526;-58
2023/08/08 03:28:20;;;;;;;0.08;0.08;;;;;;;18.42;58.71;100929.84;7359082;19;20458;-58
2023/08/08 03:30:45;;;;;;;0.10;0.10;;;;;;;18.33;58.34;100904.75;7356357;19;20074;-58
2023/08/08 03:33:11;;;;;;;0.10;0.10;;;;;;;18.38;58.62;100929.16;7358881;19;20047;-56
2023/08/08 03:35:36;;;;;;;0.10;0.10;;;;;;;18.39;58.33;100932.66;7355576;19;20743;-57
2023/08/08 03:38:02;;;;;;;0.10;0.10;;;;;;;18.37;58.87;100932.72;7358166;19;20010;-57
2023/08/08 03:40:28;;;;;;;0.00;0.00;;;;;;;18.35;58.70;100931.97;7358329;19;20654;-57
2023/08/08 03:42:53;;;;;;;0.10;0.10;;;;;;;18.33;58.82;100920.59;7360181;19;20007;-57
2023/08/08 03:45:18;;;;;;;0.10;0.10;;;;;;;18.33;58.76;100930.31;7355103;19;20021;-56
2023/08/08 03:47:44;;;;;;;0.00;0.00;;;;;;;18.30;58.89;100928.72;7358565;19;20010;-58
2023/08/08 03:50:10;;;;;;;0.03;0.03;;;;;;;18.29;58.63;100919.03;7355909;19;20014;-56
2023/08/08 03:52:37;;;;;;;0.10;0.10;;;;;;;18.26;58.38;100913.94;7358358;19;20010;-57
2023/08/08 03:55:03;;;;;;;0.10;0.10;;;;;;;18.21;58.84;100900.09;7354770;19;20569;-57
2023/08/08 03:57:28;;;;;;;0.10;0.10;;;;;;;18.18;58.67;100908.16;7354414;19;20023;-57
2023/08/08 03:59:54;;;;;;;0.00;0.00;;;;;;;18.19;58.92;100906.38;7355348;19;20030;-58
2023/08/08 04:02:19;;;;;;;0.10;0.10;;;;;;;18.13;58.83;100908.41;7357927;19;20396;-56
2023/08/08 04:04:45;;;;;;;0.00;0.00;;;;;;;18.12;58.87;100909.34;7355218;19;20014;-58
2023/08/08 04:07:10;;;;;;;0.00;0.00;;;;;;;18.09;58.66;100911.28;7359789;19;20022;-57
2023/08/08 04:09:35;;;;;;;0.00;0.00;;;;;;;17.94;58.84;100878.53;7353977;19;20010;-55
2023/08/08 04:12:01;;;;;;;0.10;0.10;;;;;;;18.02;58.89;100894.03;7358836;19;20022;-57
2023/08/08 04:14:26;;;;;;;0.08;0.08;;;;;;;17.96;58.72;100884.63;7355161;19;20509;-59
2023/08/08 04:16:52;;;;;;;0.05;0.05;;;;;;;17.93;58.63;100890.06;7357539;19;20053;-57
2023/08/08 04:19:17;;;;;;;0.03;0.03;;;;;;;17.83;59.00;100879.09;7353680;19;20030;-56
2023/08/08 04:21:43;;;;;;;0.10;0.10;;;;;;;17.85;58.58;100881.69;7357733;19;20019;-57
2023/08/08 04:24:08;;;;;;;0.10;0.10;;;;;;;17.80;58.61;100884.53;7353662;19;20051;-57
2023/08/08 04:26:34;;;;;;;0.10;0.10;;;;;;;17.69;58.72;100880.66;7356514;19;20017;-56
2023/08/08 04:28:59;;;;;;;0.00;0.00;;;;;;;17.72;58.61;100886.66;7358385;19;20070;-56
2023/08/08 04:31:25;;;;;;;0.10;0.10;;;;;;;17.57;58.88;100867.16;7357993;19;20031;-57
2023/08/08 04:33:51;;;;;;;0.00;0.00;;;;;;;17.62;59.06;100883.63;7358055;19;20074;-56
2023/08/08 04:36:17;;;;;;;0.05;0.05;;;;;;;17.59;58.71;100880.28;7356995;19;20996;-57
2023/08/08 04:38:42;;;;;;;0.00;0.00;;;;;;;17.56;58.68;100891.00;7350327;19;20074;-58
2023/08/08 04:41:08;;;;;;;0.10;0.10;;;;;;;17.52;58.71;100898.19;7351247;19;20017;-58
2023/08/08 04:43:33;;;;;;;0.00;0.00;;;;;;;17.48;59.09;100890.50;7356196;19;20010;-57
2023/08/08 04:45:58;;;;;;;0.00;0.00;;;;;;;17.46;58.96;100892.38;7355687;19;20014;-56
2023/08/08 04:48:24;;;;;;;0.10;0.10;;;;;;;17.41;58.69;100892.59;7356220;19;20027;-57
2023/08/08 04:50:49;;;;;;;0.08;0.08;;;;;;;17.40;59.29;100892.66;7356407;19;20475;-56
2023/08/08 04:53:15;;;;;;;0.00;0.00;;;;;;;17.37;59.09;100878.66;7356282;19;20050;-57
2023/08/08 04:55:40;;;;;;;0.00;0.00;;;;;;;17.33;59.23;100874.47;7355070;19;20018;-58
2023/08/08 04:58:06;;;;;;;0.10;0.10;;;;;;;17.32;58.88;100877.19;7355895;19;20725;-58
2023/08/08 05:00:31;;;;;;;0.10;0.10;;;;;;;17.28;59.21;100871.19;7357596;19;20025;-58
2023/08/08 05:02:56;;;;;;;0.00;0.00;;;;;;;17.26;58.93;100873.06;7351714;19;20127;-56
2023/08/08 05:05:22;;;;;;;0.10;0.10;;;;;;;17.23;59.23;100877.63;7356661;19;20429;-57
2023/08/08 05:07:47;;;;;;;0.00;0.00;;;;;;;17.19;59.22;100871.66;7351731;19;20043;-56
2023/08/08 05:10:13;;;;;;;0.00;0.00;;;;;;;17.17;59.06;100884.03;7354337;19;20010;-55
2023/08/08 05:12:38;;;;;;;0.00;0.00;;;;;;;17.13;58.82;100866.63;7349440;19;20020;-58
2023/08/08 05:15:04;;;;;;;0.10;0.10;;;;;;;17.09;58.78;100867.72;7354564;19;20105;-57
2023/08/08 05:17:31;;;;;;;0.00;0.00;;;;;;;17.06;59.10;100866.09;7356022;19;20010;-57
2023/08/08 05:19:57;;;;;;;0.10;0.10;;;;;;;17.02;59.26;100861.88;7355809;19;20013;-56
2023/08/08 05:22:22;;;;;;;0.03;0.03;;;;;;;16.98;59.18;100872.63;7355158;19;20002;-56
2023/08/08 05:24:48;;;;;;;0.10;0.10;;;;;;;16.85;58.91;100862.66;7353749;19;20015;-57
2023/08/08 05:27:13;;;;;;;0.00;0.00;;;;;;;16.92;59.35;100880.84;7356557;19;20007;-57
2023/08/08 05:29:40;;;;;;;0.10;0.10;;;;;;;16.76;59.05;100859.59;7355115;19;20013;-58
2023/08/08 05:32:07;;;;;;;0.10;0.10;;;;;;;16.66;59.09;100850.34;7354000;19;20014;-56
2023/08/08 05:34:33;;;;;;;0.00;0.00;;;;;;;16.81;59.21;100876.91;7353804;19;20006;-58
2023/08/08 05:36:58;;;;;;;0.10;0.10;;;;;;;16.79;59.31;100870.88;7356972;19;20852;-58
2023/08/08 05:39:24;;;;;;;0.10;0.10;;;;;;;16.76;59.50;100864.88;7351183;19;20022;-57
2023/08/08 05:41:49;;;;;;;0.05;0.05;;;;;;;16.73;59.23;100871.16;7356702;19;20103;-58
2023/08/08 05:44:15;;;;;;;0.10;0.10;;;;;;;16.70;59.34;100873.88;7347771;19;20018;-57
2023/08/08 05:46:40;;;;;;;0.03;0.03;;;;;;;16.69;59.39;100876.59;7355629;19;20042;-58
2023/08/08 05:49:06;;;;;;;0.10;0.10;;;;;;;16.65;59.57;100878.50;7351900;19;20017;-58
2023/08/08 05:51:32;;;;;;;0.10;0.10;;;;;;;16.64;59.54;100874.16;7357038;19;20011;-57
2023/08/08 05:53:57;;;;;;;0.08;0.08;;;;;;;16.63;59.65;100874.25;7353516;19;20757;-57
2023/08/08 05:56:23;;;;;;;0.00;0.00;;;;;;;16.61;59.74;100884.84;7356058;19;20006;-57
2023/08/08 05:58:48;;;;;;;0.08;0.08;;;;;;;16.60;59.67;100888.41;7348288;19;20655;-56
2023/08/08 06:01:13;;;;;;;0.00;0.00;;;;;;;16.59;59.77;100876.16;7353787;19;20015;-57
2023/08/08 06:03:39;;;;;;;0.00;0.00;;;;;;;16.59;60.13;100884.06;7348915;19;20010;-56
2023/08/08 06:06:06;;;;;;;0.03;0.03;;;;;;;16.59;60.30;100878.78;7355037;19;20014;-55
2023/08/08 06:08:31;;;;;;;0.10;0.10;;;;;;;16.61;59.97;100869.03;7352088;19;20893;-56
2023/08/08 06:10:57;;;;;;;0.10;0.10;;;;;;;16.62;60.03;100865.44;7353647;19;20010;-56
2023/08/08 06:13:23;;;;;;;0.10;0.10;;;;;;;16.64;60.03;100873.31;7351306;19;20007;-58
2023/08/08 06:15:48;;;;;;;0.10;0.10;;;;;;;16.65;60.28;100869.75;7354320;19;20014;-58
2023/08/08 06:18:14;;;;;;;0.10;0.10;;;;;;;16.65;60.15;100881.16;7352680;19;20025;-56
2023/08/08 06:20:39;;;;;;;0.10;0.10;;;;;;;16.65;60.57;100865.31;7352685;19;20073;-56
2023/08/08 06:23:04;;;;;;;0.08;0.08;;;;;;;16.69;60.54;100872.19;7354752;19;20014;-58
2023/08/08 06:25:30;;;;;;;0.10;0.10;;;;;;;16.71;60.20;100875.63;7358777;19;20135;-55
2023/08/08 06:27:55;;;;;;;0.10;0.10;;;;;;;16.73;60.21;100884.34;7358494;19;20018;-57
2023/08/08 06:30:21;;;;;;;0.10;0.10;;;;;;;16.76;60.32;100873.63;7358044;19;20018;-57
2023/08/08 06:32:46;;;;;;;0.10;0.10;;;;;;;16.79;60.71;100873.50;7356718;19;20030;-58
2023/08/08 06:35:11;;;;;;;0.10;0.10;;;;;;;16.82;60.42;100867.22;7358092;19;20010;-58
2023/08/08 06:37:37;;;;;;;0.00;0.00;;;;;;;16.74;60.42;100853.53;7359316;19;20018;-57
2023/08/08 06:40:03;;;;;;;0.00;0.00;;;;;;;16.86;60.35;100867.00;7353046;19;20910;-56
2023/08/08 06:42:29;;;;;;;0.10;0.10;;;;;;;16.91;60.53;100882.63;7357228;19;20010;-57
2023/08/08 06:44:54;;;;;;;0.00;0.00;;;;;;;16.90;60.18;100894.09;7358515;19;20007;-58
2023/08/08 06:47:19;;;;;;;0.03;0.03;;;;;;;16.95;60.41;100886.84;7352612;19;20377;-57
2023/08/08 06:49:45;;;;;;;0.00;0.00;;;;;;;16.98;60.51;100875.28;7358827;19;20029;-56
2023/08/08 06:52:10;;;;;;;0.10;0.10;;;;;;;17.00;60.45;100871.66;7353017;19;20115;-57
2023/08/08 06:54:36;;;;;;;0.10;0.10;;;;;;;17.03;60.58;100873.28;7355345;19;20054;-57
2023/08/08 06:57:02;;;;;;;0.10;0.10;;;;;;;17.07;60.48;100888.03;7353178;19;20017;-58
2023/08/08 06:59:28;;;;;;;0.10;0.10;;;;;;;17.11;60.30;100897.53;7356011;19;20014;-57
2023/08/08 07:01:53;;;;;;;0.00;0.00;;;;;;;17.01;60.25;100864.59;7359663;19;20428;-55
2023/08/08 07:04:19;;;;;;;0.05;0.05;;;;;;;17.18;60.14;100876.97;7355383;19;20101;-56
2023/08/08 07:06:44;;;;;;;0.10;0.10;;;;;;;17.21;60.49;100863.66;7358116;19;20013;-58
2023/08/08 07:09:10;;;;;;;0.10;0.10;;;;;;;17.16;60.26;100852.47;7357277;19;20003;-56
2023/08/08 07:11:36;;;;;;;0.00;0.00;;;;;;;17.29;60.27;100870.28;7353746;19;20015;-56
2023/08/08 07:14:02;;;;;;;0.10;0.10;;;;;;;17.25;60.45;100860.78;7356059;19;20022;-57
2023/08/08 07:16:28;;;;;;;0.00;0.00;;;;;;;17.39;60.18;100873.34;7358664;19;20014;-56
2023/08/08 07:18:53;;;;;;;0.05;0.05;;;;;;;17.44;60.28;100866.06;7356469;19;20090;-57
2023/08/08 07:21:18;;;;;;;0.10;0.10;;;;;;;17.51;60.27;100859.53;7358668;19;20472;-56
2023/08/08 07:23:44;;;;;;;0.10;0.10;;;;;;;17.58;60.01;100853.00;7353760;19;20106;-56
2023/08/08 07:26:10;;;;;;;0.00;0.00;;;;;;;17.59;60.59;100838.03;7353715;19;20017;-57
2023/08/08 07:28:35;;;;;;;0.10;0.10;;;;;;;17.77;60.14;100853.00;7354982;19;20023;-57
2023/08/08 07:31:01;;;;;;;0.10;0.10;;;;;;;17.88;60.12;100849.81;7358502;19;20123;-58
2023/08/08 07:33:26;;;;;;;0.10;0.10;;;;;;;17.94;60.07;100843.34;7331353;19;20017;-56
2023/08/08 07:35:52;;;;;;;0.10;0.10;;;;;;;18.08;59.83;100856.72;7353869;19;20010;-56
2023/08/08 07:38:17;;;;;;;0.10;0.10;;;;;;;18.17;59.75;100855.41;7348882;19;20015;-56
2023/08/08 07:40:42;;;;;;;0.00;0.00;;;;;;;18.28;59.76;100858.31;7354043;19;20694;-60
2023/08/08 07:43:08;;;;;;;0.10;0.10;;;;;;;18.36;60.09;100862.28;7354087;19;20011;-59
2023/08/08 07:45:33;;;;;;;0.00;0.00;;;;;;;18.47;59.43;100863.50;7345408;19;20023;-58
2023/08/08 07:47:59;;;;;;;0.10;0.10;;;;;;;18.55;59.77;100861.28;7351947;19;20010;-59
2023/08/08 07:50:24;;;;;;;0.10;0.10;;;;;;;18.64;59.81;100874.03;7328386;19;20054;-57
2023/08/08 07:52:49;;;;;;;0.10;0.10;;;;;;;18.74;59.51;100885.00;7355027;19;20010;-58
2023/08/08 07:55:15;;;;;;;0.10;0.10;;;;;;;18.69;59.41;100866.75;7349049;19;20010;-56
2023/08/08 07:57:40;;;;;;;0.00;0.00;;;;;;;18.90;59.28;100877.94;7356408;19;21068;-57
2023/08/08 08:00:12;;;;;;;0.10;0.10;;;;;;;19.02;59.25;100865.84;7345409;19;20085;-56
2023/08/08 08:02:38;;;;;;;0.10;0.10;;;;;;;19.12;59.52;100867.91;7352002;19;20026;-54
2023/08/08 08:05:07;;;;;;;0.10;0.10;;;;;;;19.24;59.25;100876.94;7352823;19;20014;-54
2023/08/08 08:07:36;;;;;;;0.08;0.08;;;;;;;19.36;59.00;100873.63;7351515;19;20027;-56
2023/08/08 08:10:02;;;;;;;0.10;0.10;;;;;;;19.48;59.23;100874.72;7350572;19;20097;-57
2023/08/08 08:12:30;;;;;;;0.10;0.10;;;;;;;19.59;59.20;100859.09;7356296;19;20622;-56
2023/08/08 08:14:55;;;;;;;0.10;0.10;;;;;;;19.69;59.02;100847.00;7354421;19;21485;-56
2023/08/08 08:17:20;;;;;;;0.10;0.10;;;;;;;19.79;59.03;100842.03;7355427;19;20010;-57
2023/08/08 08:19:46;;;;;;;0.10;0.10;;;;;;;19.90;58.40;100850.19;7354147;19;20011;-57
2023/08/08 08:22:11;;;;;;;0.10;0.10;;;;;;;20.02;58.51;100863.66;7355789;19;20902;-56
2023/08/08 08:24:37;;;;;;;0.10;0.10;;;;;;;20.11;58.39;100836.59;7354821;19;20014;-57
2023/08/08 08:27:02;;;;;;;0.00;0.00;;;;;;;20.21;57.89;100848.34;7353552;19;20002;-57
2023/08/08 08:29:28;;;;;;;0.10;0.10;;;;;;;20.26;57.89;100854.25;7355682;19;20025;-56
2023/08/08 08:31:53;;;;;;;0.10;0.10;;;;;;;20.37;57.61;100857.09;7354052;19;20010;-55
2023/08/08 08:34:18;;;;;;;0.10;0.10;;;;;;;20.44;57.59;100855.78;7354919;19;20085;-57
2023/08/08 08:36:44;;;;;;;0.00;0.00;;;;;;;20.51;57.70;100855.44;7356118;19;20036;-57
2023/08/08 08:39:09;;;;;;;0.00;0.00;;;;;;;20.57;58.12;100853.25;7353002;19;20030;-56
2023/08/08 08:41:39;;;;;;;0.10;0.10;;;;;;;20.66;58.04;100843.88;7356726;19;20010;-56
2023/08/08 08:44:05;;;;;;;0.10;0.10;;;;;;;20.73;58.03;100850.47;7353904;19;20081;-57
2023/08/08 08:46:35;;;;;;;0.10;0.10;;;;;;;20.81;58.05;100869.44;7355241;19;20006;-56
2023/08/08 08:49:02;;;;;;;0.10;0.10;;;;;;;20.88;57.59;100870.78;7352713;19;20784;-58
2023/08/08 08:51:27;;;;;;;0.10;0.10;;;;;;;20.94;57.42;100870.38;7356192;19;20394;-57
2023/08/08 08:53:53;;;;;;;0.00;0.00;;;;;;;21.02;57.28;100866.38;7353700;19;20018;-58
2023/08/08 08:56:19;;;;;;;0.05;0.05;;;;;;;21.03;57.45;100852.16;7355649;19;20031;-56
2023/08/08 08:58:44;;;;;;;0.10;0.10;;;;;;;21.16;57.32;100869.00;7355570;19;20346;-57
2023/08/08 09:01:10;;;;;;;0.10;0.10;;;;;;;21.24;56.83;100872.88;7346220;19;21019;-56
2023/08/08 09:03:39;;;;;;;0.10;0.10;;;;;;;21.36;57.45;100865.94;7354275;19;20022;-54
2023/08/08 09:06:05;;;;;;;0.10;0.10;;;;;;;21.38;57.29;100858.72;7350302;19;20046;-56
2023/08/08 09:08:31;;;;;;;0.10;0.10;;;;;;;21.46;57.38;100855.59;7357386;19;20026;-56
2023/08/08 09:10:56;;;;;;;0.10;0.10;;;;;;;21.52;57.17;100870.25;7349600;19;20014;-56
2023/08/08 09:13:25;;;;;;;0.10;0.10;;;;;;;21.57;57.03;100860.19;7354975;19;20577;-58
2023/08/08 09:15:51;;;;;;;0.00;0.00;;;;;;;21.59;57.16;100859.13;7353731;19;20014;-56
2023/08/08 09:18:16;;;;;;;0.10;0.10;;;;;;;21.69;57.22;100862.88;7355069;19;20010;-56
2023/08/08 09:20:47;;;;;;;0.10;0.10;;;;;;;21.81;57.06;100874.50;7353885;19;20082;-55
2023/08/08 09:23:12;;;;;;;0.10;0.10;;;;;;;21.84;57.16;100868.97;7353284;19;20011;-55
2023/08/08 09:25:38;;;;;;;0.10;0.10;;;;;;;21.93;56.62;100865.69;7353357;19;20022;-56
2023/08/08 09:28:04;;;;;;;0.10;0.10;;;;;;;22.07;56.21;100870.09;7348859;19;20023;-56
2023/08/08 09:30:29;;;;;;;0.10;0.10;;;;;;;22.19;56.49;100861.28;7355066;19;20066;-55
2023/08/08 09:32:58;;;;;;;0.10;0.10;;;;;;;22.38;56.52;100866.19;7352642;19;20111;-57
2023/08/08 09:35:24;;;;;;;0.10;0.10;;;;;;;22.45;54.59;100867.47;7352510;19;20015;-57
2023/08/08 09:37:49;;;;;;;0.10;0.10;;;;;;;22.59;55.57;100868.31;7347610;19;20378;-56
2023/08/08 09:40:15;;;;;;;0.10;0.10;;;;;;;22.67;55.91;100863.31;7349080;19;20766;-57
2023/08/08 09:42:41;;;;;;;0.10;0.10;;;;;;;22.79;55.92;100871.25;7351345;19;20030;-57
2023/08/08 09:45:08;;;;;;;0.10;0.10;;;;;;;22.98;55.50;100870.84;7344859;19;20022;-57
2023/08/08 09:47:34;;;;;;;0.10;0.10;;;;;;;23.13;55.21;100873.38;7352218;19;20011;-55
2023/08/08 09:50:00;;;;;;;0.10;0.10;;;;;;;23.25;54.93;100867.97;7352895;19;20018;-57
2023/08/08 09:52:29;;;;;;;0.10;0.10;;;;;;;23.42;54.34;100856.09;7352795;19;20014;-57
2023/08/08 09:54:55;;;;;;;0.10;0.10;;;;;;;23.46;54.75;100865.53;7352950;19;20054;-57
2023/08/08 09:57:22;;;;;;;0.10;0.10;;;;;;;23.48;53.94;100858.31;7352812;19;20007;-56
2023/08/08 09:59:48;;;;;;;0.10;0.10;;;;;;;23.54;54.35;100873.84;7359748;19;20026;-56
2023/08/08 10:02:15;;;;;;;0.10;0.10;;;;;;;23.63;53.97;100876.78;7359164;19;20021;-57
2023/08/08 10:04:42;;;;;;;0.10;0.10;;;;;;;23.64;53.74;100866.03;7351189;19;20070;-57
2023/08/08 10:07:07;;;;;;;0.10;0.10;;;;;;;23.62;53.96;100851.06;7359402;19;20014;-56
2023/08/08 10:09:33;;;;;;;0.10;0.10;;;;;;;23.66;53.69;100860.59;7324600;19;20129;-57
2023/08/08 10:12:00;;;;;;;0.10;0.10;;;;;;;23.68;53.45;100864.00;7353563;19;20611;-58
2023/08/08 10:14:34;;;;;;;0.10;0.10;;;;;;;23.78;53.66;100865.84;7351319;19;20538;-57
2023/08/08 10:17:03;;;;;;;0.10;0.10;;;;;;;23.72;53.05;100853.00;7358430;19;20445;-55
2023/08/08 10:19:29;;;;;;;0.10;0.10;;;;;;;23.63;53.71;100852.81;7354366;19;20023;-55
2023/08/08 10:22:00;;;;;;;0.10;0.10;;;;;;;23.79;53.17;100864.88;7355963;19;20060;-58
2023/08/08 10:24:25;;;;;;;0.10;0.10;;;;;;;23.73;52.82;100869.84;7355065;19;20010;-57
2023/08/08 10:27:00;;;;;;;0.10;0.10;;;;;;;23.71;53.22;100880.59;7357028;19;20037;-56
2023/08/08 10:29:26;;;;;;;0.10;0.10;;;;;;;23.71;53.11;100890.41;7355964;19;20025;-56
2023/08/08 10:32:05;;;;;;;0.10;0.10;;;;;;;23.78;52.98;100875.69;7357318;19;20503;-57
2023/08/08 10:34:46;;;;;;;0.00;0.00;;;;;;;23.78;52.93;100865.00;7355970;19;20011;-57
2023/08/08 10:37:12;;;;;;;0.10;0.10;;;;;;;23.74;53.27;100871.53;7357456;19;20014;-56
2023/08/08 10:39:50;;;;;;;0.10;0.10;;;;;;;23.88;53.30;100878.50;7357767;19;20026;-55
2023/08/08 10:42:19;;;;;;;0.10;0.10;;;;;;;23.92;53.04;100872.78;7361476;19;20803;-56
2023/08/08 10:44:52;;;;;;;0.03;0.03;;;;;;;24.03;52.93;100875.53;7357765;19;20479;-55
2023/08/08 10:47:24;;;;;;;0.13;0.13;;;;;;;24.10;52.59;100864.38;7357374;19;22042;-57
2023/08/08 10:50:06;;;;;;;0.10;0.10;;;;;;;24.21;52.29;100864.38;7358033;19;20011;-57
2023/08/08 10:52:35;;;;;;;0.10;0.10;;;;;;;24.17;52.42;100863.75;7353584;19;20007;-57
2023/08/08 10:55:02;;;;;;;0.10;0.10;;;;;;;24.21;51.96;100861.72;7359456;19;20619;-57
2023/08/08 10:57:27;;;;;;;0.10;0.10;;;;;;;24.21;51.96;100859.06;7356290;19;20011;-55
2023/08/08 10:59:54;;;;;;;0.10;0.10;;;;;;;24.20;51.86;100862.69;7361370;19;20672;-57
2023/08/08 11:02:21;;;;;;;0.10;0.10;;;;;;;24.16;51.08;100861.22;7358619;19;20018;-57
2023/08/08 11:04:48;;;;;;;0.10;0.10;;;;;;;24.14;50.62;100860.50;7358441;19;20014;-56
2023/08/08 11:07:15;;;;;;;0.10;0.10;;;;;;;24.07;50.89;100860.94;7352803;19;20026;-55
2023/08/08 11:09:40;;;;;;;0.10;0.10;;;;;;;24.03;50.95;100853.34;7358504;19;20010;-55
2023/08/08 11:12:13;;;;;;;0.10;0.10;;;;;;;24.04;51.31;100861.22;7358339;19;20810;-55
2023/08/08 11:14:39;;;;;;;0.10;0.10;;;;;;;23.94;51.17;100852.22;7360369;19;20021;-57
2023/08/08 11:17:05;;;;;;;0.10;0.10;;;;;;;23.85;50.76;100858.25;7358208;19;20010;-57
2023/08/08 11:19:31;;;;;;;0.10;0.10;;;;;;;23.85;50.83;100860.06;7359409;19;20011;-57